Terminal Aerodrome Forecast
Issued by NWS

Home | Current Version | Previous Version | Text Only | Print | Product List | Glossary On
Versions: 1 2 3 4 5 6 7 8 9 10 11 12 13 14 15 16 17 18 19
956
FTUS43 KDLH 281008 AAA
TAFHYR
TAF AMD
KHYR 281008Z 2810/2906 04005KT P6SM OVC006
      TEMPO 2810/2812 3SM BR SCT005 OVC060
     FM281200 00000KT 4SM BR SCT010 BKN060
      TEMPO 2812/2814 3/4SM BR BKN008
     FM281400 08007KT P6SM BKN070
     FM281800 06008KT P6SM SCT100=

USA.gov is the U.S. government's official web portal to all federal, state and local government web resources and services.